createdAt,value
2018-04-07T00:01:51.920Z,3.05
2018-04-07T00:04:21.663Z,2.13
2018-04-07T00:06:50.190Z,2.72
2018-04-07T00:09:21.149Z,2.67
2018-04-07T00:11:50.068Z,2.10
2018-04-07T00:14:17.563Z,2.58
2018-04-07T00:16:47.143Z,2.25
2018-04-07T00:19:14.856Z,2.95
2018-04-07T00:21:42.362Z,3.13
2018-04-07T00:24:11.139Z,2.23
2018-04-07T00:26:38.872Z,2.90
2018-04-07T00:29:06.378Z,2.50
2018-04-07T00:31:34.735Z,2.97
2018-04-07T00:34:04.573Z,2.85
2018-04-07T00:36:33.816Z,2.40
2018-04-07T00:39:01.405Z,2.78
2018-04-07T00:41:29.960Z,2.77
2018-04-07T00:43:58.391Z,3.40
2018-04-07T00:46:27.254Z,2.30
2018-04-07T00:48:58.742Z,1.95
2018-04-07T00:51:26.208Z,2.87
2018-04-07T00:53:58.135Z,2.87
2018-04-07T00:56:27.114Z,2.80
2018-04-07T00:58:55.868Z,2.47
2018-04-07T01:01:23.315Z,2.53
2018-04-07T01:03:50.816Z,2.40
2018-04-07T01:06:19.246Z,2.35
2018-04-07T01:08:50.384Z,1.80
2018-04-07T01:11:18.520Z,2.12
2018-04-07T01:13:47.566Z,2.42
2018-04-07T01:16:15.029Z,2.20
2018-04-07T01:18:42.456Z,1.55
2018-04-07T01:21:09.893Z,2.90
2018-04-07T01:23:37.329Z,2.75
2018-04-07T01:26:04.821Z,2.70
2018-04-07T01:28:32.241Z,2.25
2018-04-07T01:30:59.668Z,2.97
2018-04-07T01:33:27.108Z,2.25
2018-04-07T01:35:54.565Z,2.53
2018-04-07T01:38:22.008Z,2.30
2018-04-07T01:40:49.440Z,2.65
2018-04-07T01:43:18.269Z,2.62
2018-04-07T01:45:45.697Z,3.50
2018-04-07T01:48:13.175Z,3.08
2018-04-07T01:50:40.622Z,3.72
2018-04-07T01:53:08.079Z,3.28
2018-04-07T01:55:35.510Z,3.20
2018-04-07T01:58:03.341Z,3.10
2018-04-07T02:00:30.772Z,3.00
2018-04-07T02:02:58.216Z,2.53
2018-04-07T02:05:25.652Z,2.90
2018-04-07T02:07:53.080Z,2.70
2018-04-07T02:10:20.592Z,2.15
2018-04-07T02:12:48.005Z,2.75
2018-04-07T02:15:15.828Z,2.47
2018-04-07T02:17:43.257Z,2.35
2018-04-07T02:20:10.713Z,2.65
2018-04-07T02:22:38.133Z,3.17
2018-04-07T02:25:05.564Z,2.62
2018-04-07T02:27:32.996Z,3.47
2018-04-07T02:30:00.441Z,1.95
2018-04-07T02:32:27.883Z,1.70
2018-04-07T02:34:55.692Z,2.22
2018-04-07T02:37:23.134Z,3.15
2018-04-07T02:39:51.725Z,1.85
2018-04-07T02:42:19.156Z,2.50
2018-04-07T02:44:46.603Z,2.30
2018-04-07T02:47:15.112Z,2.42
2018-04-07T02:49:42.572Z,2.05
2018-04-07T02:52:10.796Z,2.65
2018-04-07T02:54:38.624Z,2.53
2018-04-07T02:57:06.052Z,3.15
2018-04-07T02:59:33.503Z,2.10
2018-04-07T03:02:00.922Z,2.35
2018-04-07T03:04:28.349Z,2.30
2018-04-07T03:06:55.792Z,2.47
2018-04-07T03:09:23.249Z,2.25
2018-04-07T03:11:50.683Z,2.25
2018-04-07T03:14:18.103Z,1.73
2018-04-07T03:16:45.527Z,2.05
2018-04-07T03:19:12.956Z,2.45
2018-04-07T03:21:40.432Z,1.77
2018-04-07T03:24:08.063Z,2.12
2018-04-07T03:26:36.288Z,2.17
2018-04-07T03:29:03.724Z,3.35
2018-04-07T03:31:31.166Z,2.12
2018-04-07T03:33:58.621Z,2.35
2018-04-07T03:36:26.054Z,2.90
2018-04-07T03:38:53.864Z,2.80
2018-04-07T03:41:21.837Z,3.33
2018-04-07T03:43:49.278Z,2.42
2018-04-07T03:46:16.740Z,2.35
2018-04-07T03:48:44.145Z,2.45
2018-04-07T03:51:11.990Z,2.95
2018-04-07T03:53:39.402Z,2.92
2018-04-07T03:56:06.847Z,2.90
2018-04-07T03:58:34.270Z,3.00
2018-04-07T04:01:01.718Z,2.55
2018-04-07T04:03:29.137Z,3.05
2018-04-07T04:05:56.577Z,2.47
2018-04-07T04:08:24.033Z,2.33
2018-04-07T04:10:52.248Z,2.22
2018-04-07T04:13:19.660Z,3.08
2018-04-07T04:15:47.111Z,2.90
2018-04-07T04:18:14.528Z,2.28
2018-04-07T04:20:42.675Z,2.40
2018-04-07T04:23:10.136Z,2.58
2018-04-07T04:25:37.584Z,3.85
2018-04-07T04:28:05.049Z,3.30
2018-04-07T04:30:33.194Z,3.00
2018-04-07T04:33:00.677Z,2.80
2018-04-07T04:35:28.120Z,3.45
2018-04-07T04:37:55.540Z,3.55
2018-04-07T04:40:23.372Z,2.70
2018-04-07T04:42:50.808Z,2.85
2018-04-07T04:45:18.267Z,3.47
2018-04-07T04:47:45.694Z,2.62
2018-04-07T04:50:13.775Z,2.42
2018-04-07T04:52:41.209Z,2.53
2018-04-07T04:55:08.652Z,2.45
2018-04-07T04:57:36.060Z,3.15
2018-04-07T05:00:03.507Z,2.40
2018-04-07T05:02:30.933Z,2.83
2018-04-07T05:04:58.762Z,3.65
2018-04-07T05:07:26.195Z,2.45
2018-04-07T05:09:53.634Z,3.08
2018-04-07T05:12:21.057Z,2.95
2018-04-07T05:14:48.886Z,3.25
2018-04-07T05:17:16.329Z,3.17
2018-04-07T05:19:43.764Z,3.33
2018-04-07T05:22:11.246Z,2.22
2018-04-07T05:24:39.021Z,3.40
2018-04-07T05:27:06.457Z,2.72
2018-04-07T05:29:33.889Z,2.12
2018-04-07T05:32:01.319Z,2.92
2018-04-07T05:34:28.754Z,2.70
2018-04-07T05:36:56.196Z,2.45
2018-04-07T05:39:26.986Z,3.10
2018-04-07T05:41:54.409Z,2.80
2018-04-07T05:44:21.845Z,2.75
2018-04-07T05:46:49.281Z,3.50
2018-04-07T05:49:16.719Z,2.78
2018-04-07T05:51:44.536Z,4.65
2018-04-07T05:54:12.046Z,2.90
2018-04-07T05:56:39.509Z,3.65
2018-04-07T05:59:06.992Z,2.20
2018-04-07T06:01:34.415Z,4.07
2018-04-07T06:04:01.860Z,2.20
2018-04-07T06:06:29.700Z,3.58
2018-04-07T06:08:57.185Z,3.45
2018-04-07T06:11:25.046Z,3.92
2018-04-07T06:13:52.894Z,2.35
2018-04-07T06:16:20.405Z,3.70
2018-04-07T06:18:47.858Z,3.35
2018-04-07T06:21:15.323Z,3.30
2018-04-07T06:23:42.762Z,3.90
2018-04-07T06:26:10.232Z,3.05
2018-04-07T06:28:37.700Z,3.85
2018-04-07T06:31:05.156Z,2.95
2018-04-07T06:33:32.593Z,4.28
2018-04-07T06:36:00.061Z,4.03
2018-04-07T06:38:27.509Z,4.07
2018-04-07T06:40:55.006Z,4.25
2018-04-07T06:43:22.450Z,3.53
2018-04-07T06:45:50.314Z,4.10
2018-04-07T06:48:17.765Z,4.55
2018-04-07T06:50:45.229Z,3.60
2018-04-07T06:53:12.680Z,3.30
2018-04-07T06:55:40.132Z,3.00
2018-04-07T06:58:07.560Z,3.42
2018-04-07T07:00:35.035Z,4.18
2018-04-07T07:03:02.825Z,3.50
2018-04-07T07:05:30.252Z,3.75
2018-04-07T07:07:57.686Z,4.18
2018-04-07T07:10:25.517Z,3.28
2018-04-07T07:12:53.749Z,4.65
2018-04-07T07:15:21.188Z,3.62
2018-04-07T07:17:48.621Z,4.70
2018-04-07T07:20:16.056Z,3.97
2018-04-07T07:22:43.498Z,3.80
2018-04-07T07:25:11.252Z,4.12
2018-04-07T07:27:38.712Z,4.30
2018-04-07T07:30:06.155Z,4.15
2018-04-07T07:32:33.608Z,4.35
2018-04-07T07:35:01.954Z,3.97
2018-04-07T07:37:29.772Z,4.40
2018-04-07T07:39:57.221Z,3.87
2018-04-07T07:42:24.664Z,3.83
2018-04-07T07:44:52.105Z,4.25
2018-04-07T07:47:19.560Z,4.28
2018-04-07T07:49:47.401Z,4.37
2018-04-07T07:52:14.859Z,3.70
2018-04-07T07:54:42.304Z,4.15
2018-04-07T07:57:09.737Z,4.67
2018-04-07T07:59:37.172Z,4.45
2018-04-07T08:02:04.666Z,3.60
2018-04-07T08:04:32.115Z,4.30
2018-04-07T08:06:59.570Z,3.83
2018-04-07T08:09:27.046Z,4.37
2018-04-07T08:11:54.501Z,3.83
2018-04-07T08:14:22.020Z,4.60
2018-04-07T08:16:49.954Z,4.30
2018-04-07T08:19:17.863Z,4.27
2018-04-07T08:21:45.353Z,4.80
2018-04-07T08:24:13.297Z,4.10
2018-04-07T08:26:40.754Z,4.80
2018-04-07T08:29:08.190Z,4.30
2018-04-07T08:31:35.646Z,5.10
2018-04-07T08:34:03.080Z,4.40
2018-04-07T08:36:30.916Z,4.57
2018-04-07T08:38:58.351Z,5.23
2018-04-07T08:41:25.788Z,4.40
2018-04-07T08:43:53.265Z,4.17
2018-04-07T08:46:20.724Z,4.80
2018-04-07T08:48:48.245Z,5.10
2018-04-07T08:51:15.634Z,5.37
2018-04-07T08:53:43.163Z,4.83
2018-04-07T08:56:10.621Z,4.53
2018-04-07T08:58:38.081Z,4.70
2018-04-07T09:01:06.622Z,3.87
2018-04-07T09:03:34.065Z,4.13
2018-04-07T09:06:01.491Z,5.20
2018-04-07T09:08:28.921Z,4.50
2018-04-07T09:10:56.357Z,5.00
2018-04-07T09:13:24.186Z,4.67
2018-04-07T09:15:51.649Z,4.57
2018-04-07T09:18:19.089Z,5.73
2018-04-07T09:20:46.528Z,4.87
2018-04-07T09:23:13.956Z,4.70
2018-04-07T09:25:41.774Z,4.97
2018-04-07T09:28:09.232Z,5.17
2018-04-07T09:30:36.648Z,4.50
2018-04-07T09:33:04.092Z,4.30
2018-04-07T09:35:32.564Z,5.10
2018-04-07T09:38:00.406Z,4.50
2018-04-07T09:40:27.841Z,4.63
2018-04-07T09:42:55.299Z,4.50
2018-04-07T09:45:22.728Z,4.43
2018-04-07T09:47:50.153Z,4.67
2018-04-07T09:50:17.586Z,4.97
2018-04-07T09:52:45.017Z,4.03
2018-04-07T09:55:12.469Z,4.70
2018-04-07T09:57:39.909Z,5.10
2018-04-07T10:00:07.328Z,4.40
2018-04-07T10:02:35.549Z,5.97
2018-04-07T10:05:18.408Z,5.10
2018-04-07T10:07:45.852Z,4.83
2018-04-07T10:10:13.332Z,4.00
2018-04-07T10:12:40.761Z,5.53
2018-04-07T10:15:08.191Z,4.80
2018-04-07T10:17:35.648Z,4.70
2018-04-07T10:20:03.178Z,4.40
2018-04-07T10:22:30.997Z,4.47
2018-04-07T10:24:58.439Z,4.70
2018-04-07T10:27:25.911Z,4.83
2018-04-07T10:29:53.395Z,4.50
2018-04-07T10:32:20.809Z,4.00
2018-04-07T10:34:48.258Z,4.83
2018-04-07T10:37:15.681Z,5.10
2018-04-07T10:39:43.523Z,4.60
2018-04-07T10:42:10.943Z,4.50
2018-04-07T10:44:38.384Z,4.90
2018-04-07T10:47:05.805Z,4.57
2018-04-07T10:49:33.666Z,4.80
2018-04-07T10:52:01.081Z,4.97
2018-04-07T10:54:28.555Z,5.40
2018-04-07T10:56:56.843Z,4.93
2018-04-07T10:59:24.473Z,6.07
2018-04-07T11:01:51.898Z,4.77
2018-04-07T11:04:19.332Z,5.23
2018-04-07T11:06:46.776Z,3.93
2018-04-07T11:09:14.204Z,4.90
2018-04-07T11:11:41.636Z,4.17
2018-04-07T11:14:09.069Z,4.30
2018-04-07T11:16:36.903Z,4.20
2018-04-07T11:19:04.326Z,5.70
2018-04-07T11:21:31.785Z,4.40
2018-04-07T11:23:59.250Z,4.60
2018-04-07T11:26:26.661Z,4.17
2018-04-07T11:28:54.101Z,4.57
2018-04-07T11:31:21.528Z,4.57
2018-04-07T11:33:48.953Z,4.47
2018-04-07T11:36:16.384Z,4.50
2018-04-07T11:38:44.218Z,4.97
2018-04-07T11:41:11.649Z,4.40
2018-04-07T11:43:39.314Z,4.63
2018-04-07T11:46:06.724Z,4.60
2018-04-07T11:48:34.160Z,4.23
2018-04-07T11:51:01.596Z,5.60
2018-04-07T11:53:29.020Z,4.17
2018-04-07T11:55:56.445Z,3.63
2018-04-07T11:58:24.268Z,3.67
2018-04-07T12:00:51.692Z,4.00
2018-04-07T12:03:19.140Z,4.67
2018-04-07T12:05:46.568Z,3.50
2018-04-07T12:08:13.996Z,4.17
2018-04-07T12:10:41.426Z,4.97
2018-04-07T12:13:08.857Z,4.40
2018-04-07T12:15:36.687Z,4.20
2018-04-07T12:18:04.116Z,4.40
2018-04-07T12:20:31.577Z,5.27
2018-04-07T12:22:59.004Z,4.97
2018-04-07T12:25:26.429Z,4.10
2018-04-07T12:27:53.875Z,4.77
2018-04-07T12:30:21.309Z,3.80
2018-04-07T12:32:48.746Z,4.20
2018-04-07T12:35:16.173Z,4.47
2018-04-07T12:37:44.026Z,4.40
2018-04-07T12:40:11.458Z,4.70
2018-04-07T12:42:38.898Z,4.03
2018-04-07T12:45:06.323Z,4.73
2018-04-07T12:47:33.786Z,4.33
2018-04-07T12:50:01.221Z,4.30
2018-04-07T12:52:28.667Z,4.17
2018-04-07T12:54:56.125Z,3.83
2018-04-07T12:57:23.558Z,4.00
2018-04-07T12:59:51.021Z,4.07
2018-04-07T13:02:18.452Z,4.30
2018-04-07T13:04:45.889Z,4.60
2018-04-07T13:07:13.329Z,3.80
2018-04-07T13:09:40.752Z,3.40
2018-04-07T13:12:08.189Z,4.20
2018-04-07T13:14:35.663Z,4.97
2018-04-07T13:17:03.084Z,4.50
2018-04-07T13:19:30.565Z,4.30
2018-04-07T13:21:58.006Z,4.47
2018-04-07T13:24:25.429Z,4.00
2018-04-07T13:26:52.874Z,4.30
2018-04-07T13:29:20.304Z,4.07
2018-04-07T13:31:47.751Z,4.30
2018-04-07T13:34:15.179Z,3.77
2018-04-07T14:06:30.650Z,3.87
2018-04-07T14:08:58.091Z,3.60
2018-04-07T14:11:27.442Z,3.67
2018-04-07T14:15:35.578Z,3.40
2018-04-07T14:18:04.166Z,3.00
2018-04-07T14:20:32.077Z,3.00
2018-04-07T14:37:24.713Z,2.97
2018-04-07T15:02:21.550Z,2.73
2018-04-07T15:04:56.695Z,2.63
2018-04-07T15:07:25.557Z,2.90
2018-04-07T15:10:02.528Z,3.07
2018-04-07T15:12:34.127Z,2.67
2018-04-07T15:15:03.625Z,3.03
2018-04-07T15:17:32.493Z,2.70
2018-04-07T15:20:13.148Z,2.83
2018-04-07T15:22:40.612Z,2.53
2018-04-07T15:25:15.837Z,2.47
2018-04-07T15:27:43.294Z,2.53
2018-04-07T15:30:10.768Z,2.03
2018-04-07T15:32:38.227Z,2.77
2018-04-07T15:35:05.681Z,3.00
2018-04-07T15:37:33.146Z,2.60
2018-04-07T15:40:00.569Z,3.20
2018-04-07T15:42:27.995Z,3.07
2018-04-07T15:44:55.442Z,2.63
2018-04-07T15:47:23.261Z,2.57
2018-04-07T15:49:50.708Z,2.40
2018-04-07T15:52:18.140Z,2.40
2018-04-07T15:54:45.564Z,2.53
2018-04-07T15:57:13.398Z,2.10
2018-04-07T15:59:40.831Z,2.47
2018-04-07T16:02:08.948Z,3.00
2018-04-07T16:04:37.701Z,2.60
2018-04-07T16:07:05.205Z,2.50
2018-04-07T16:09:33.031Z,2.73
2018-04-07T16:12:00.484Z,1.93
2018-04-07T16:14:28.140Z,2.90
2018-04-07T16:16:55.584Z,2.63
2018-04-07T16:19:23.059Z,2.33
2018-04-07T16:21:50.444Z,2.67
2018-04-07T16:24:17.872Z,2.90
2018-04-07T16:26:45.293Z,2.13
2018-04-07T16:29:12.725Z,2.13
2018-04-07T16:31:40.144Z,2.67
2018-04-07T16:34:07.569Z,2.30
2018-04-07T16:36:34.992Z,1.90
2018-04-07T16:39:02.456Z,2.13
2018-04-07T16:41:30.272Z,2.17
2018-04-07T16:43:57.706Z,2.00
2018-04-07T16:46:25.126Z,1.87
2018-04-07T16:48:52.558Z,1.87
2018-04-07T16:51:19.980Z,1.90
2018-04-07T16:53:47.480Z,1.60
2018-04-07T16:56:14.927Z,1.83
2018-04-07T16:58:42.377Z,2.27
2018-04-07T17:01:09.800Z,3.30
2018-04-07T17:03:37.225Z,2.70
2018-04-07T17:06:05.077Z,2.07
2018-04-07T17:08:32.731Z,1.50
2018-04-07T17:11:00.164Z,1.23
2018-04-07T17:13:27.601Z,1.80
2018-04-07T17:15:55.057Z,2.47
2018-04-07T17:18:22.513Z,1.47
2018-04-07T17:20:49.969Z,1.90
2018-04-07T17:23:17.497Z,1.77
2018-04-07T17:25:45.344Z,2.03
2018-04-07T17:28:12.795Z,1.97
2018-04-07T17:30:40.254Z,2.00
2018-04-07T17:33:07.717Z,2.10
2018-04-07T17:35:35.173Z,1.97
2018-04-07T17:38:02.625Z,2.17
2018-04-07T17:40:30.078Z,2.03
2018-04-07T17:42:57.536Z,2.63
2018-04-07T17:45:24.981Z,2.50
2018-04-07T17:47:52.725Z,2.20
2018-04-07T17:50:20.449Z,1.80
2018-04-07T17:52:47.917Z,2.50
2018-04-07T17:55:15.366Z,2.17
2018-04-07T17:57:42.834Z,1.93
2018-04-07T18:00:10.278Z,2.80
2018-04-07T18:02:37.738Z,2.97
2018-04-07T18:05:05.297Z,2.07
2018-04-07T18:07:32.737Z,1.60
2018-04-07T18:10:00.589Z,1.40
2018-04-07T18:12:28.029Z,1.83
2018-04-07T18:14:55.476Z,1.90
2018-04-07T18:17:22.904Z,1.77
2018-04-07T18:19:50.340Z,1.77
2018-04-07T18:22:17.765Z,1.80
2018-04-07T18:24:45.205Z,2.40
2018-04-07T18:27:12.623Z,2.10
2018-04-07T18:29:40.096Z,2.70
2018-04-07T18:32:08.469Z,2.27
2018-04-07T18:34:35.900Z,2.40
2018-04-07T18:37:03.356Z,2.50
2018-04-07T18:39:31.198Z,2.40
2018-04-07T18:41:59.060Z,2.47
2018-04-07T18:44:26.525Z,2.37
2018-04-07T18:46:53.972Z,3.60
2018-04-07T18:49:22.340Z,2.70
2018-04-07T18:51:49.847Z,2.80
2018-04-07T18:54:18.076Z,2.40
2018-04-07T18:56:45.538Z,2.90
2018-04-07T18:59:13.030Z,2.83
2018-04-07T19:01:41.114Z,3.10
2018-04-07T19:04:08.552Z,3.07
2018-04-07T19:06:36.718Z,3.83
2018-04-07T19:09:05.915Z,3.10
2018-04-07T19:11:34.035Z,3.03
2018-04-07T19:14:01.592Z,3.77
2018-04-07T19:16:29.252Z,2.93
2018-04-07T19:18:57.487Z,3.50
2018-04-07T19:21:25.357Z,3.17
2018-04-07T19:23:52.851Z,4.00
2018-04-07T19:26:20.303Z,4.73
2018-04-07T19:28:47.764Z,3.50
2018-04-07T19:31:16.959Z,3.60
2018-04-07T19:33:44.432Z,3.23
2018-04-07T19:36:11.878Z,3.80
2018-04-07T19:38:39.593Z,3.73
2018-04-07T19:41:07.082Z,3.30
2018-04-07T19:43:34.541Z,3.40
2018-04-07T19:46:03.663Z,4.17
2018-04-07T19:48:31.925Z,3.60
2018-04-07T19:50:59.892Z,3.20
2018-04-07T19:53:27.868Z,3.37
2018-04-07T19:55:55.325Z,3.47
2018-04-07T19:58:23.792Z,4.07
2018-04-07T20:00:53.649Z,3.50
2018-04-07T20:03:23.288Z,3.37
2018-04-07T20:05:51.763Z,3.60
2018-04-07T20:08:20.780Z,4.40
2018-04-07T20:10:48.232Z,2.93
2018-04-07T20:13:15.727Z,3.63
2018-04-07T20:15:43.124Z,3.33
2018-04-07T20:18:11.046Z,3.33
2018-04-07T20:20:39.091Z,3.97
2018-04-07T20:23:06.528Z,4.20
2018-04-07T20:25:34.011Z,3.10
2018-04-07T20:28:01.474Z,3.17
2018-04-07T20:30:30.613Z,3.00
2018-04-07T20:32:58.064Z,3.73
2018-04-07T20:35:25.680Z,3.47
2018-04-07T20:37:58.024Z,2.90
2018-04-07T20:40:25.469Z,2.60
2018-04-07T20:42:53.362Z,3.90
2018-04-07T20:45:21.593Z,3.43
2018-04-07T20:47:53.035Z,2.97
2018-04-07T20:50:21.463Z,3.50
2018-04-07T20:52:48.903Z,3.10
2018-04-07T20:55:17.529Z,2.90
2018-04-07T20:57:44.990Z,2.60
2018-04-07T21:00:13.470Z,3.27
2018-04-07T21:02:42.047Z,3.50
2018-04-07T21:05:10.284Z,3.03
2018-04-07T21:07:38.122Z,3.03
2018-04-07T21:10:05.572Z,3.33
2018-04-07T21:12:34.480Z,3.10
2018-04-07T21:15:01.962Z,3.10
2018-04-07T21:17:32.642Z,4.00
2018-04-07T21:20:06.892Z,4.00
2018-04-07T21:22:35.236Z,3.60
2018-04-07T21:25:10.218Z,2.90
2018-04-07T21:27:47.085Z,4.00
2018-04-07T21:30:15.623Z,3.17
2018-04-07T21:32:50.508Z,3.50
2018-04-07T21:35:31.689Z,3.13
2018-04-07T21:40:37.839Z,3.30
2018-04-07T21:43:06.617Z,3.23
2018-04-07T21:45:36.264Z,2.80
2018-04-07T21:48:07.712Z,2.83
2018-04-07T21:50:39.718Z,2.80
2018-04-07T21:53:10.387Z,3.07
2018-04-07T21:55:46.738Z,2.13
2018-04-07T21:58:15.624Z,2.93
2018-04-07T22:00:50.314Z,2.90
2018-04-07T22:08:37.502Z,2.90
2018-04-07T22:11:08.513Z,2.70
2018-04-07T22:13:40.010Z,2.70
2018-04-07T22:16:13.359Z,2.73
2018-04-07T22:18:43.300Z,3.07
2018-04-07T22:21:13.196Z,3.13
2018-04-07T22:23:42.045Z,2.80
2018-04-07T22:26:11.527Z,4.20
2018-04-07T22:28:44.364Z,3.07
2018-04-07T22:31:16.200Z,2.87
2018-04-07T22:33:47.780Z,2.97
2018-04-07T22:36:18.429Z,3.30
2018-04-07T22:38:48.400Z,3.10
2018-04-07T22:41:16.815Z,4.17
2018-04-07T22:43:48.971Z,3.33
2018-04-07T22:46:23.082Z,3.70
2018-04-07T22:48:52.998Z,3.97
2018-04-07T22:51:20.560Z,3.47
2018-04-07T22:53:52.733Z,2.97
2018-04-07T22:56:20.177Z,3.60
2018-04-07T22:58:51.707Z,3.47
2018-04-07T23:01:20.428Z,3.60
2018-04-07T23:03:59.416Z,3.67
2018-04-07T23:09:05.010Z,3.67
2018-04-07T23:11:34.824Z,4.60
2018-04-07T23:14:03.250Z,3.10
2018-04-07T23:19:09.471Z,4.40
2018-04-07T23:21:42.863Z,3.40
2018-04-07T23:24:18.938Z,3.63
2018-04-07T23:29:33.738Z,3.07
2018-04-07T23:32:05.416Z,3.90
2018-04-07T23:34:37.335Z,3.87
2018-04-07T23:37:07.582Z,3.83
2018-04-07T23:39:36.296Z,3.80
2018-04-07T23:42:08.966Z,4.10
2018-04-07T23:44:44.288Z,3.50
2018-04-07T23:47:25.742Z,3.70
2018-04-07T23:52:36.170Z,4.03
2018-04-07T23:55:10.609Z,3.40
2018-04-07T23:57:39.852Z,4.17
